BVG0072 EGBK-EGTD
Flight info
| Callsign | BVG0072 |
|---|---|
| Flight time | N/A |
| Altitude | 9000 |
| Route | DCT EGTD |
| Aircraft | M20T/L-SDFGRY/S |
Departure
| Time | 2026-04-29 12:25 |
|---|---|
| Airport | Sywell Aerodrome (EGBK) |
Arrival
| Time | N/A |
|---|---|
| Airport | Dunsfold Aerodrome (EGTD) |
| Time | Latitude | Longitude | Altitude | Speed | Heading |
|---|---|---|---|---|---|
| 2026-04-29 12:22 | 52.30904 | -0.79063 | 423 ft | 0 kts | 200° |
| 2026-04-29 12:23 | 52.30885 | -0.79075 | 423 ft | 13 kts | 200° |
| 2026-04-29 12:24 | 52.30682 | -0.79196 | 423 ft | 48 kts | 200° |
| 2026-04-29 12:24 | 52.30250 | -0.79454 | 436 ft | 81 kts | 200° |
| 2026-04-29 12:24 | 52.29727 | -0.79766 | 665 ft | 80 kts | 200° |
| 2026-04-29 12:24 | 52.29194 | -0.80017 | 895 ft | 79 kts | 178° |
| 2026-04-29 12:25 | 52.28718 | -0.79657 | 1130 ft | 74 kts | 151° |
| 2026-04-29 12:25 | 52.28269 | -0.79267 | 1351 ft | 71 kts | 152° |
| 2026-04-29 12:25 | 52.27318 | -0.78588 | 1738 ft | 73 kts | 166° |
| 2026-04-29 12:26 | 52.26827 | -0.78424 | 1904 ft | 72 kts | 170° |
| 2026-04-29 12:26 | 52.26477 | -0.78332 | 1972 ft | 74 kts | 171° |
| 2026-04-29 12:26 | 52.25980 | -0.78216 | 2099 ft | 74 kts | 172° |
| 2026-04-29 12:26 | 52.25475 | -0.78103 | 2234 ft | 72 kts | 172° |
| 2026-04-29 12:27 | 52.24961 | -0.77990 | 2352 ft | 73 kts | 172° |
| 2026-04-29 12:27 | 52.24454 | -0.77879 | 2470 ft | 74 kts | 172° |
| 2026-04-29 12:27 | 52.23944 | -0.77767 | 2598 ft | 74 kts | 172° |
| 2026-04-29 12:27 | 52.23425 | -0.77654 | 2725 ft | 73 kts | 172° |
| 2026-04-29 12:28 | 52.22919 | -0.77544 | 2842 ft | 74 kts | 172° |
| 2026-04-29 12:28 | 52.22405 | -0.77432 | 2965 ft | 74 kts | 172° |
| 2026-04-29 12:28 | 52.21885 | -0.77319 | 3091 ft | 74 kts | 172° |
| 2026-04-29 12:28 | 52.21372 | -0.77207 | 3211 ft | 74 kts | 172° |
| 2026-04-29 12:29 | 52.20937 | -0.77113 | 3313 ft | 75 kts | 172° |
| 2026-04-29 12:29 | 52.20352 | -0.76985 | 3451 ft | 75 kts | 172° |
| 2026-04-29 12:29 | 52.19824 | -0.76871 | 3575 ft | 75 kts | 172° |
| 2026-04-29 12:29 | 52.19305 | -0.76758 | 3690 ft | 76 kts | 172° |
| 2026-04-29 12:30 | 52.18800 | -0.76648 | 3804 ft | 76 kts | 172° |
| 2026-04-29 12:30 | 52.18165 | -0.76510 | 3942 ft | 77 kts | 172° |
| 2026-04-29 12:30 | 52.17630 | -0.76393 | 4054 ft | 78 kts | 172° |
| 2026-04-29 12:30 | 52.17078 | -0.76274 | 4171 ft | 79 kts | 173° |
| 2026-04-29 12:31 | 52.16535 | -0.76155 | 4286 ft | 80 kts | 173° |
| 2026-04-29 12:31 | 52.15974 | -0.76034 | 4402 ft | 81 kts | 173° |
| 2026-04-29 12:31 | 52.15417 | -0.75913 | 4515 ft | 82 kts | 174° |
| 2026-04-29 12:31 | 52.14857 | -0.75791 | 4629 ft | 82 kts | 174° |
| 2026-04-29 12:32 | 52.14259 | -0.75662 | 4714 ft | 89 kts | 174° |
| 2026-04-29 12:32 | 52.13656 | -0.75530 | 4869 ft | 86 kts | 175° |
| 2026-04-29 12:32 | 52.13048 | -0.75399 | 4992 ft | 87 kts | 176° |
| 2026-04-29 12:32 | 52.12452 | -0.75269 | 5107 ft | 89 kts | 176° |
| 2026-04-29 12:33 | 52.11839 | -0.75136 | 5250 ft | 88 kts | 177° |
| 2026-04-29 12:33 | 52.11231 | -0.75004 | 5377 ft | 88 kts | 178° |
| 2026-04-29 12:33 | 52.10617 | -0.74871 | 5501 ft | 89 kts | 179° |
| 2026-04-29 12:33 | 52.10009 | -0.74739 | 5641 ft | 88 kts | 180° |
| 2026-04-29 12:34 | 52.09397 | -0.74607 | 5771 ft | 88 kts | 180° |
| 2026-04-29 12:34 | 52.08797 | -0.74477 | 5899 ft | 88 kts | 181° |
| 2026-04-29 12:34 | 52.08388 | -0.74388 | 5995 ft | 87 kts | 182° |
| 2026-04-29 12:34 | 52.07780 | -0.74257 | 6103 ft | 87 kts | 183° |
| 2026-04-29 12:35 | 52.07179 | -0.74126 | 6222 ft | 85 kts | 184° |
| 2026-04-29 12:35 | 52.06590 | -0.74000 | 6322 ft | 86 kts | 184° |
| 2026-04-29 12:35 | 52.06005 | -0.73872 | 6435 ft | 84 kts | 185° |
| 2026-04-29 12:35 | 52.05428 | -0.73748 | 6548 ft | 83 kts | 186° |
| 2026-04-29 12:36 | 52.04847 | -0.73623 | 6656 ft | 83 kts | 186° |
| 2026-04-29 12:36 | 52.04280 | -0.73501 | 6760 ft | 83 kts | 186° |
| 2026-04-29 12:36 | 52.03713 | -0.73379 | 6865 ft | 82 kts | 186° |
| 2026-04-29 12:36 | 52.03145 | -0.73257 | 6962 ft | 83 kts | 186° |
| 2026-04-29 12:37 | 52.02564 | -0.73131 | 7068 ft | 83 kts | 186° |
| 2026-04-29 12:37 | 52.01994 | -0.73008 | 7171 ft | 83 kts | 186° |
| 2026-04-29 12:37 | 52.01417 | -0.72884 | 7271 ft | 83 kts | 186° |
| 2026-04-29 12:37 | 52.00844 | -0.72760 | 7374 ft | 83 kts | 186° |
| 2026-04-29 12:38 | 52.00260 | -0.72634 | 7478 ft | 83 kts | 186° |
| 2026-04-29 12:38 | 51.99679 | -0.72509 | 7579 ft | 84 kts | 186° |
| 2026-04-29 12:38 | 51.99093 | -0.72383 | 7683 ft | 84 kts | 186° |
| 2026-04-29 12:38 | 51.98527 | -0.72261 | 7782 ft | 84 kts | 186° |
| 2026-04-29 12:39 | 51.97950 | -0.72137 | 7883 ft | 84 kts | 186° |
| 2026-04-29 12:39 | 51.97368 | -0.72011 | 7985 ft | 84 kts | 186° |
| 2026-04-29 12:39 | 51.96780 | -0.71885 | 8087 ft | 84 kts | 186° |
| 2026-04-29 12:39 | 51.96198 | -0.71759 | 8188 ft | 84 kts | 186° |
| 2026-04-29 12:40 | 51.95624 | -0.71636 | 8287 ft | 84 kts | 186° |
| 2026-04-29 12:40 | 51.95046 | -0.71512 | 8387 ft | 85 kts | 186° |
| 2026-04-29 12:40 | 51.94465 | -0.71387 | 8487 ft | 85 kts | 186° |
| 2026-04-29 12:40 | 51.93869 | -0.71258 | 8589 ft | 85 kts | 186° |
| 2026-04-29 12:41 | 51.93284 | -0.71133 | 8689 ft | 85 kts | 186° |
| 2026-04-29 12:41 | 51.92698 | -0.71007 | 8789 ft | 85 kts | 186° |
| 2026-04-29 12:41 | 51.92115 | -0.70882 | 8888 ft | 85 kts | 186° |
| 2026-04-29 12:41 | 51.91522 | -0.70755 | 8981 ft | 87 kts | 186° |
| 2026-04-29 12:42 | 51.90896 | -0.70626 | 9032 ft | 95 kts | 185° |
| 2026-04-29 12:42 | 51.90212 | -0.70486 | 9045 ft | 107 kts | 184° |
| 2026-04-29 12:42 | 51.89411 | -0.70319 | 9037 ft | 121 kts | 182° |
| 2026-04-29 12:42 | 51.88539 | -0.70134 | 9025 ft | 132 kts | 181° |
| 2026-04-29 12:43 | 51.87601 | -0.69932 | 9017 ft | 141 kts | 181° |
| 2026-04-29 12:43 | 51.86610 | -0.69717 | 9011 ft | 147 kts | 180° |
| 2026-04-29 12:43 | 51.85580 | -0.69493 | 9007 ft | 152 kts | 180° |
| 2026-04-29 12:43 | 51.84511 | -0.69261 | 9005 ft | 155 kts | 180° |
| 2026-04-29 12:44 | 51.83429 | -0.69026 | 9004 ft | 158 kts | 180° |
| 2026-04-29 12:44 | 51.82332 | -0.68789 | 9003 ft | 160 kts | 180° |
| 2026-04-29 12:44 | 51.81222 | -0.68549 | 9002 ft | 162 kts | 180° |
| 2026-04-29 12:44 | 51.80106 | -0.68309 | 9001 ft | 163 kts | 180° |
| 2026-04-29 12:45 | 51.78992 | -0.68070 | 9001 ft | 163 kts | 180° |
| 2026-04-29 12:45 | 51.77875 | -0.67830 | 9001 ft | 164 kts | 180° |
| 2026-04-29 12:45 | 51.76721 | -0.67582 | 9000 ft | 164 kts | 180° |
| 2026-04-29 12:45 | 51.75581 | -0.67339 | 9000 ft | 165 kts | 180° |
| 2026-04-29 12:46 | 51.74452 | -0.67097 | 9000 ft | 165 kts | 180° |
| 2026-04-29 12:46 | 51.73300 | -0.66853 | 8923 ft | 170 kts | 179° |
| 2026-04-29 12:46 | 51.72108 | -0.66605 | 8741 ft | 178 kts | 179° |
| 2026-04-29 12:46 | 51.70845 | -0.66340 | 8546 ft | 185 kts | 179° |
| 2026-04-29 12:47 | 51.69567 | -0.66068 | 8350 ft | 188 kts | 179° |
| 2026-04-29 12:47 | 51.68697 | -0.65881 | 8217 ft | 188 kts | 179° |
| 2026-04-29 12:47 | 51.66956 | -0.65506 | 7951 ft | 189 kts | 178° |
| 2026-04-29 12:47 | 51.65644 | -0.65225 | 7751 ft | 190 kts | 178° |
| 2026-04-29 12:48 | 51.64339 | -0.64946 | 7552 ft | 190 kts | 178° |
| 2026-04-29 12:48 | 51.63046 | -0.64670 | 7345 ft | 190 kts | 178° |
| 2026-04-29 12:48 | 51.61721 | -0.64389 | 7094 ft | 192 kts | 178° |
| 2026-04-29 12:48 | 51.60392 | -0.64108 | 6846 ft | 194 kts | 178° |
| 2026-04-29 12:49 | 51.59038 | -0.63821 | 6593 ft | 194 kts | 178° |
| 2026-04-29 12:49 | 51.57705 | -0.63539 | 6344 ft | 195 kts | 178° |
| 2026-04-29 12:49 | 51.56362 | -0.63256 | 6095 ft | 196 kts | 177° |
| 2026-04-29 12:49 | 51.55007 | -0.62970 | 5845 ft | 197 kts | 176° |
| 2026-04-29 12:50 | 51.53618 | -0.62677 | 5590 ft | 198 kts | 176° |
| 2026-04-29 12:50 | 51.52275 | -0.62394 | 5344 ft | 198 kts | 175° |
| 2026-04-29 12:50 | 51.50906 | -0.62104 | 5150 ft | 195 kts | 174° |
| 2026-04-29 12:50 | 51.49576 | -0.61822 | 5032 ft | 190 kts | 174° |
| 2026-04-29 12:51 | 51.48302 | -0.61552 | 4923 ft | 186 kts | 174° |
| 2026-04-29 12:51 | 51.47012 | -0.61280 | 4811 ft | 182 kts | 174° |
| 2026-04-29 12:51 | 51.45758 | -0.61017 | 4701 ft | 180 kts | 174° |
| 2026-04-29 12:51 | 51.44531 | -0.60759 | 4593 ft | 178 kts | 173° |
| 2026-04-29 12:52 | 51.43312 | -0.60504 | 4485 ft | 176 kts | 173° |
| 2026-04-29 12:52 | 51.42100 | -0.60250 | 4376 ft | 175 kts | 173° |
| 2026-04-29 12:52 | 51.40897 | -0.59999 | 4262 ft | 173 kts | 173° |
| 2026-04-29 12:52 | 51.39694 | -0.59749 | 4111 ft | 174 kts | 173° |
| 2026-04-29 12:53 | 51.38539 | -0.59242 | 4010 ft | 171 kts | 148° |
| 2026-04-29 12:53 | 51.37846 | -0.57802 | 4007 ft | 162 kts | 111° |
| 2026-04-29 12:53 | 51.37552 | -0.56116 | 4002 ft | 156 kts | 101° |